createdAt,value
2023-03-22T00:02:23.070Z,10.81
2023-03-22T00:07:25.082Z,10.82
2023-03-22T00:12:26.448Z,10.82
2023-03-22T00:17:28.468Z,10.81
2023-03-22T00:22:30.088Z,10.78
2023-03-22T00:27:31.984Z,10.81
2023-03-22T00:32:36.033Z,10.85
2023-03-22T00:37:41.256Z,10.88
2023-03-22T00:42:44.097Z,10.88
2023-03-22T00:47:45.826Z,10.86
2023-03-22T00:52:47.344Z,10.90
2023-03-22T00:57:48.744Z,10.86
2023-03-22T01:02:53.903Z,10.85
2023-03-22T01:07:55.598Z,10.84
2023-03-22T01:12:57.175Z,10.82
2023-03-22T01:17:58.914Z,10.79
2023-03-22T01:23:00.991Z,10.76
2023-03-22T01:28:03.147Z,10.80
2023-03-22T01:33:05.727Z,10.79
2023-03-22T01:38:07.256Z,10.77
2023-03-22T01:43:17.443Z,10.80
2023-03-22T01:48:22.156Z,10.83
2023-03-22T01:53:26.646Z,10.78
2023-03-22T01:58:28.378Z,10.76
2023-03-22T02:03:43.258Z,10.83
2023-03-22T02:08:45.084Z,10.83
2023-03-22T02:13:56.837Z,10.86
2023-03-22T02:19:09.150Z,10.86
2023-03-22T02:24:45.333Z,10.83
2023-03-22T02:29:58.657Z,10.77
2023-03-22T02:35:23.393Z,10.78
2023-03-22T02:40:43.405Z,10.74
2023-03-22T02:45:54.604Z,10.65
2023-03-22T02:51:03.865Z,10.63
2023-03-22T02:56:21.595Z,10.54
2023-03-22T03:01:30.598Z,10.47
2023-03-22T03:06:38.943Z,10.38
2023-03-22T03:11:40.893Z,10.33
2023-03-22T03:16:42.402Z,10.33
2023-03-22T03:21:49.756Z,10.34
2023-03-22T03:27:04.938Z,10.33
2023-03-22T03:32:36.093Z,10.32
2023-03-22T03:37:44.789Z,10.30
2023-03-22T03:42:51.879Z,10.25
2023-03-22T03:47:57.662Z,10.19
2023-03-22T03:53:00.553Z,10.21
2023-03-22T03:58:02.220Z,10.17
2023-03-22T04:03:04.699Z,10.16
2023-03-22T04:08:06.331Z,10.08
2023-03-22T04:13:08.011Z,10.12
2023-03-22T04:18:11.269Z,10.16
2023-03-22T04:23:12.627Z,10.20
2023-03-22T04:28:14.213Z,10.15
2023-03-22T04:33:15.616Z,10.14
2023-03-22T04:38:18.177Z,10.15
2023-03-22T04:43:21.192Z,10.16
2023-03-22T04:48:23.806Z,10.23
2023-03-22T04:53:27.445Z,10.22
2023-03-22T04:58:29.246Z,10.19
2023-03-22T05:03:31.014Z,10.13
2023-03-22T05:08:33.305Z,10.10
2023-03-22T05:13:36.478Z,10.03
2023-03-22T05:18:42.255Z,10.00
2023-03-22T05:23:45.164Z,9.99
2023-03-22T05:28:47.078Z,9.93
2023-03-22T05:33:51.515Z,9.90
2023-03-22T05:38:52.959Z,9.89
2023-03-22T05:43:54.649Z,9.78
2023-03-22T05:48:57.655Z,9.81
2023-03-22T05:53:59.164Z,9.82
2023-03-22T05:59:00.665Z,9.83
2023-03-22T06:04:02.217Z,9.84
2023-03-22T06:09:16.576Z,9.85
2023-03-22T06:14:18.777Z,9.90
2023-03-22T06:19:21.578Z,9.97
2023-03-22T06:24:23.465Z,10.08
2023-03-22T06:29:24.944Z,10.27
2023-03-22T06:34:26.607Z,10.38
2023-03-22T06:39:28.594Z,10.41
2023-03-22T06:44:30.216Z,10.50
2023-03-22T06:49:31.724Z,10.58
2023-03-22T06:54:33.898Z,10.66
2023-03-22T06:59:37.626Z,10.71
2023-03-22T07:04:39.162Z,10.78
2023-03-22T07:09:40.620Z,10.96
2023-03-22T07:14:41.995Z,11.07
2023-03-22T07:19:43.408Z,11.32
2023-03-22T07:24:56.222Z,11.54
2023-03-22T07:30:00.005Z,11.62
2023-03-22T07:35:01.482Z,11.69
2023-03-22T07:40:04.944Z,11.78
2023-03-22T07:45:07.775Z,11.84
2023-03-22T07:50:14.462Z,11.91
2023-03-22T07:55:17.795Z,12.17
2023-03-22T08:00:19.597Z,12.11
2023-03-22T08:05:22.827Z,12.27
2023-03-22T08:10:24.382Z,12.40
2023-03-22T08:15:25.914Z,12.53
2023-03-22T08:20:27.800Z,12.72
2023-03-22T08:25:30.220Z,12.78
2023-03-22T08:30:31.928Z,12.75
2023-03-22T08:35:34.245Z,13.03
2023-03-22T08:40:36.010Z,13.27
2023-03-22T08:45:38.405Z,13.29
2023-03-22T08:50:41.143Z,13.68
2023-03-22T08:55:45.078Z,13.85
2023-03-22T09:00:49.487Z,14.04
2023-03-22T09:05:52.444Z,14.02
2023-03-22T09:10:54.629Z,14.41
2023-03-22T09:15:56.954Z,15.26
2023-03-22T09:20:58.798Z,15.42
2023-03-22T09:26:02.104Z,14.99
2023-03-22T09:31:09.706Z,14.91
2023-03-22T09:36:12.752Z,15.05
2023-03-22T09:41:35.516Z,15.25
2023-03-22T09:46:40.910Z,15.92
2023-03-22T09:51:53.506Z,15.65
2023-03-22T09:57:27.740Z,15.86
2023-03-22T10:02:37.781Z,15.53
2023-03-22T10:07:57.642Z,15.33
2023-03-22T10:13:00.067Z,15.24
2023-03-22T10:18:06.838Z,15.19
2023-03-22T10:23:15.650Z,15.02
2023-03-22T10:28:25.199Z,14.92
2023-03-22T10:33:52.636Z,15.99
2023-03-22T10:39:13.850Z,15.70
2023-03-22T10:44:19.904Z,17.08
2023-03-22T10:49:33.119Z,17.99
2023-03-22T10:54:36.737Z,18.80
2023-03-22T10:59:45.476Z,20.69
2023-03-22T11:04:50.037Z,19.12
2023-03-22T11:09:58.809Z,17.95
2023-03-22T11:15:00.786Z,19.14
2023-03-22T11:20:10.182Z,23.32
2023-03-22T11:25:20.519Z,25.28
2023-03-22T11:30:28.088Z,25.54
2023-03-22T11:35:31.048Z,27.36
2023-03-22T11:40:36.440Z,29.15
2023-03-22T11:45:42.261Z,27.08
2023-03-22T11:50:45.650Z,28.57
2023-03-22T11:55:49.109Z,28.33
2023-03-22T12:00:53.507Z,28.67
2023-03-22T12:05:56.358Z,28.92
2023-03-22T12:11:04.926Z,27.51
2023-03-22T12:16:07.997Z,26.67
2023-03-22T12:21:11.878Z,28.17
2023-03-22T12:26:18.362Z,30.95
2023-03-22T12:31:26.534Z,30.90
2023-03-22T12:36:38.385Z,29.77
2023-03-22T12:41:47.426Z,30.14
2023-03-22T12:47:00.740Z,29.23
2023-03-22T12:52:15.396Z,29.20
2023-03-22T12:57:17.204Z,28.93
2023-03-22T13:02:27.440Z,29.53
2023-03-22T13:07:31.739Z,29.30
2023-03-22T13:12:34.829Z,28.07
2023-03-22T13:17:45.410Z,28.46
2023-03-22T13:22:46.918Z,27.49
2023-03-22T13:27:54.463Z,27.43
2023-03-22T13:33:14.662Z,28.07
2023-03-22T13:38:19.948Z,28.39
2023-03-22T13:43:24.614Z,26.65
2023-03-22T13:48:47.480Z,25.52
2023-03-22T13:54:05.625Z,23.79
2023-03-22T13:59:11.085Z,23.62
2023-03-22T14:04:22.773Z,22.68
2023-03-22T14:09:31.349Z,22.14
2023-03-22T14:14:39.958Z,21.65
2023-03-22T14:19:42.476Z,21.29
